sensor_id;sensor_type;location;lat;lon;timestamp;P1;durP1;ratioP1;P2;durP2;ratioP2
46723;SDS011;32463;48.298;11.620;2024-02-21T00:00:55;8.07;;;2.55;;
46723;SDS011;32463;48.298;11.620;2024-02-21T00:03:42;8.25;;;2.72;;
46723;SDS011;32463;48.298;11.620;2024-02-21T00:06:29;6.10;;;2.58;;
46723;SDS011;32463;48.298;11.620;2024-02-21T00:09:16;6.53;;;2.15;;
46723;SDS011;32463;48.298;11.620;2024-02-21T00:12:05;5.13;;;2.20;;
46723;SDS011;32463;48.298;11.620;2024-02-21T00:14:52;7.38;;;2.05;;
46723;SDS011;32463;48.298;11.620;2024-02-21T00:17:38;4.93;;;1.70;;
46723;SDS011;32463;48.298;11.620;2024-02-21T00:20:26;6.45;;;2.28;;
46723;SDS011;32463;48.298;11.620;2024-02-21T00:23:13;6.00;;;2.00;;
46723;SDS011;32463;48.298;11.620;2024-02-21T00:25:59;5.50;;;2.20;;
46723;SDS011;32463;48.298;11.620;2024-02-21T00:28:46;6.88;;;2.78;;
46723;SDS011;32463;48.298;11.620;2024-02-21T00:31:33;5.38;;;2.25;;
46723;SDS011;32463;48.298;11.620;2024-02-21T00:34:20;7.05;;;1.95;;
46723;SDS011;32463;48.298;11.620;2024-02-21T00:37:06;5.95;;;1.77;;
46723;SDS011;32463;48.298;11.620;2024-02-21T00:39:53;3.83;;;1.70;;
46723;SDS011;32463;48.298;11.620;2024-02-21T00:42:41;7.65;;;2.10;;
46723;SDS011;32463;48.298;11.620;2024-02-21T00:45:27;12.38;;;2.25;;
46723;SDS011;32463;48.298;11.620;2024-02-21T00:48:14;8.90;;;2.05;;
46723;SDS011;32463;48.298;11.620;2024-02-21T00:51:01;4.63;;;1.83;;
46723;SDS011;32463;48.298;11.620;2024-02-21T00:53:48;3.63;;;1.85;;
46723;SDS011;32463;48.298;11.620;2024-02-21T00:56:35;7.90;;;1.95;;
46723;SDS011;32463;48.298;11.620;2024-02-21T00:59:21;9.00;;;1.75;;
46723;SDS011;32463;48.298;11.620;2024-02-21T01:02:08;7.03;;;1.73;;
46723;SDS011;32463;48.298;11.620;2024-02-21T01:04:55;9.43;;;2.88;;
46723;SDS011;32463;48.298;11.620;2024-02-21T01:07:42;5.30;;;2.05;;
46723;SDS011;32463;48.298;11.620;2024-02-21T01:10:28;5.05;;;1.52;;
46723;SDS011;32463;48.298;11.620;2024-02-21T01:13:15;5.65;;;1.80;;
46723;SDS011;32463;48.298;11.620;2024-02-21T01:16:02;7.22;;;1.88;;
46723;SDS011;32463;48.298;11.620;2024-02-21T01:18:49;7.15;;;1.67;;
46723;SDS011;32463;48.298;11.620;2024-02-21T01:21:36;3.53;;;1.73;;
46723;SDS011;32463;48.298;11.620;2024-02-21T01:24:23;6.68;;;2.55;;
46723;SDS011;32463;48.298;11.620;2024-02-21T01:27:10;5.78;;;2.15;;
46723;SDS011;32463;48.298;11.620;2024-02-21T01:29:57;7.47;;;1.80;;
46723;SDS011;32463;48.298;11.620;2024-02-21T01:32:44;6.32;;;1.92;;
46723;SDS011;32463;48.298;11.620;2024-02-21T01:35:30;3.03;;;1.60;;
46723;SDS011;32463;48.298;11.620;2024-02-21T01:38:17;5.70;;;2.00;;
46723;SDS011;32463;48.298;11.620;2024-02-21T01:41:04;6.55;;;1.98;;
46723;SDS011;32463;48.298;11.620;2024-02-21T01:43:51;5.18;;;1.60;;
46723;SDS011;32463;48.298;11.620;2024-02-21T01:46:38;4.53;;;1.80;;
46723;SDS011;32463;48.298;11.620;2024-02-21T01:49:25;3.45;;;1.60;;
46723;SDS011;32463;48.298;11.620;2024-02-21T01:52:14;8.82;;;1.80;;
46723;SDS011;32463;48.298;11.620;2024-02-21T01:55:02;4.80;;;1.67;;
46723;SDS011;32463;48.298;11.620;2024-02-21T01:57:50;3.65;;;1.45;;
46723;SDS011;32463;48.298;11.620;2024-02-21T02:00:37;3.50;;;1.52;;
46723;SDS011;32463;48.298;11.620;2024-02-21T02:03:27;10.43;;;1.65;;
46723;SDS011;32463;48.298;11.620;2024-02-21T02:06:15;2.80;;;1.40;;
46723;SDS011;32463;48.298;11.620;2024-02-21T02:09:02;2.88;;;1.15;;
46723;SDS011;32463;48.298;11.620;2024-02-21T02:11:49;5.80;;;1.90;;
46723;SDS011;32463;48.298;11.620;2024-02-21T02:14:35;5.18;;;1.58;;
46723;SDS011;32463;48.298;11.620;2024-02-21T02:17:22;5.75;;;1.80;;
46723;SDS011;32463;48.298;11.620;2024-02-21T02:20:09;5.10;;;1.48;;
46723;SDS011;32463;48.298;11.620;2024-02-21T02:22:57;5.70;;;1.90;;
46723;SDS011;32463;48.298;11.620;2024-02-21T02:25:45;3.08;;;1.58;;
46723;SDS011;32463;48.298;11.620;2024-02-21T02:28:34;5.22;;;1.77;;
46723;SDS011;32463;48.298;11.620;2024-02-21T02:31:22;5.72;;;1.65;;
46723;SDS011;32463;48.298;11.620;2024-02-21T02:34:08;11.75;;;1.98;;
46723;SDS011;32463;48.298;11.620;2024-02-21T02:36:55;5.75;;;1.60;;
46723;SDS011;32463;48.298;11.620;2024-02-21T02:39:42;4.05;;;1.33;;
46723;SDS011;32463;48.298;11.620;2024-02-21T02:42:29;3.47;;;1.42;;
46723;SDS011;32463;48.298;11.620;2024-02-21T02:45:16;8.05;;;1.80;;
46723;SDS011;32463;48.298;11.620;2024-02-21T02:48:03;3.55;;;1.50;;
46723;SDS011;32463;48.298;11.620;2024-02-21T02:50:51;5.30;;;1.80;;
46723;SDS011;32463;48.298;11.620;2024-02-21T02:53:37;4.45;;;1.33;;
46723;SDS011;32463;48.298;11.620;2024-02-21T02:56:24;6.28;;;1.48;;
46723;SDS011;32463;48.298;11.620;2024-02-21T02:59:11;3.10;;;1.48;;
46723;SDS011;32463;48.298;11.620;2024-02-21T03:01:58;4.30;;;1.40;;
46723;SDS011;32463;48.298;11.620;2024-02-21T03:04:44;4.40;;;1.33;;
46723;SDS011;32463;48.298;11.620;2024-02-21T03:07:31;8.13;;;2.00;;
46723;SDS011;32463;48.298;11.620;2024-02-21T03:10:18;5.47;;;1.73;;
46723;SDS011;32463;48.298;11.620;2024-02-21T03:13:05;4.18;;;1.63;;
46723;SDS011;32463;48.298;11.620;2024-02-21T03:15:52;4.32;;;1.63;;
46723;SDS011;32463;48.298;11.620;2024-02-21T03:18:38;2.10;;;1.23;;
46723;SDS011;32463;48.298;11.620;2024-02-21T03:21:25;3.97;;;1.60;;
46723;SDS011;32463;48.298;11.620;2024-02-21T03:24:12;5.00;;;1.52;;
46723;SDS011;32463;48.298;11.620;2024-02-21T03:26:59;6.22;;;1.55;;
46723;SDS011;32463;48.298;11.620;2024-02-21T03:29:45;4.72;;;1.73;;
46723;SDS011;32463;48.298;11.620;2024-02-21T03:32:32;5.13;;;1.80;;
46723;SDS011;32463;48.298;11.620;2024-02-21T03:35:19;4.13;;;1.50;;
46723;SDS011;32463;48.298;11.620;2024-02-21T03:38:06;6.18;;;1.77;;
46723;SDS011;32463;48.298;11.620;2024-02-21T03:40:52;5.03;;;1.90;;
46723;SDS011;32463;48.298;11.620;2024-02-21T03:43:39;3.83;;;1.35;;
46723;SDS011;32463;48.298;11.620;2024-02-21T03:46:26;3.65;;;1.35;;
46723;SDS011;32463;48.298;11.620;2024-02-21T03:49:13;3.38;;;1.45;;
46723;SDS011;32463;48.298;11.620;2024-02-21T03:52:00;3.65;;;1.70;;
46723;SDS011;32463;48.298;11.620;2024-02-21T03:54:47;8.38;;;1.67;;
46723;SDS011;32463;48.298;11.620;2024-02-21T03:57:34;5.47;;;2.08;;
46723;SDS011;32463;48.298;11.620;2024-02-21T04:00:21;5.63;;;1.40;;
46723;SDS011;32463;48.298;11.620;2024-02-21T04:03:08;7.10;;;1.48;;
46723;SDS011;32463;48.298;11.620;2024-02-21T04:05:55;3.90;;;1.33;;
46723;SDS011;32463;48.298;11.620;2024-02-21T04:08:42;4.05;;;1.38;;
46723;SDS011;32463;48.298;11.620;2024-02-21T04:11:29;4.50;;;1.33;;
46723;SDS011;32463;48.298;11.620;2024-02-21T04:14:15;4.40;;;1.70;;
46723;SDS011;32463;48.298;11.620;2024-02-21T04:17:02;5.30;;;1.40;;
46723;SDS011;32463;48.298;11.620;2024-02-21T04:19:50;4.20;;;1.63;;
46723;SDS011;32463;48.298;11.620;2024-02-21T04:22:47;6.28;;;1.52;;
46723;SDS011;32463;48.298;11.620;2024-02-21T04:25:35;4.47;;;1.30;;
46723;SDS011;32463;48.298;11.620;2024-02-21T04:28:22;2.20;;;1.08;;
46723;SDS011;32463;48.298;11.620;2024-02-21T04:31:09;5.32;;;1.60;;
46723;SDS011;32463;48.298;11.620;2024-02-21T04:33:56;2.85;;;1.17;;
46723;SDS011;32463;48.298;11.620;2024-02-21T04:36:43;7.18;;;1.38;;
46723;SDS011;32463;48.298;11.620;2024-02-21T04:39:30;3.03;;;1.30;;
46723;SDS011;32463;48.298;11.620;2024-02-21T04:42:16;4.53;;;1.92;;
46723;SDS011;32463;48.298;11.620;2024-02-21T04:45:03;2.50;;;1.27;;
46723;SDS011;32463;48.298;11.620;2024-02-21T04:47:50;5.18;;;1.67;;
46723;SDS011;32463;48.298;11.620;2024-02-21T04:50:37;2.20;;;1.27;;
46723;SDS011;32463;48.298;11.620;2024-02-21T04:53:24;2.95;;;1.30;;
46723;SDS011;32463;48.298;11.620;2024-02-21T04:56:11;2.65;;;1.30;;
46723;SDS011;32463;48.298;11.620;2024-02-21T04:58:58;4.38;;;1.10;;
46723;SDS011;32463;48.298;11.620;2024-02-21T05:01:44;4.25;;;1.30;;
46723;SDS011;32463;48.298;11.620;2024-02-21T05:04:31;5.38;;;1.40;;
46723;SDS011;32463;48.298;11.620;2024-02-21T05:07:18;3.97;;;1.33;;
46723;SDS011;32463;48.298;11.620;2024-02-21T05:10:06;4.57;;;1.40;;
46723;SDS011;32463;48.298;11.620;2024-02-21T05:12:54;6.30;;;1.40;;
46723;SDS011;32463;48.298;11.620;2024-02-21T05:15:40;4.45;;;1.42;;
46723;SDS011;32463;48.298;11.620;2024-02-21T05:18:27;5.05;;;1.30;;
46723;SDS011;32463;48.298;11.620;2024-02-21T05:21:14;3.67;;;1.50;;
46723;SDS011;32463;48.298;11.620;2024-02-21T05:24:01;3.78;;;1.42;;
46723;SDS011;32463;48.298;11.620;2024-02-21T05:26:48;2.83;;;1.38;;
46723;SDS011;32463;48.298;11.620;2024-02-21T05:29:35;4.65;;;1.38;;
46723;SDS011;32463;48.298;11.620;2024-02-21T05:32:21;3.80;;;1.40;;
46723;SDS011;32463;48.298;11.620;2024-02-21T05:35:08;1.92;;;0.90;;
46723;SDS011;32463;48.298;11.620;2024-02-21T05:37:55;4.72;;;1.60;;
46723;SDS011;32463;48.298;11.620;2024-02-21T05:40:42;2.95;;;1.10;;
46723;SDS011;32463;48.298;11.620;2024-02-21T05:43:31;2.40;;;1.00;;
46723;SDS011;32463;48.298;11.620;2024-02-21T05:46:21;3.00;;;1.15;;
46723;SDS011;32463;48.298;11.620;2024-02-21T05:49:08;2.03;;;0.90;;
46723;SDS011;32463;48.298;11.620;2024-02-21T05:51:55;3.60;;;1.13;;
46723;SDS011;32463;48.298;11.620;2024-02-21T05:54:41;2.97;;;1.15;;
46723;SDS011;32463;48.298;11.620;2024-02-21T05:57:28;3.00;;;1.02;;
46723;SDS011;32463;48.298;11.620;2024-02-21T06:00:15;2.67;;;1.15;;
46723;SDS011;32463;48.298;11.620;2024-02-21T06:03:02;2.47;;;1.10;;
46723;SDS011;32463;48.298;11.620;2024-02-21T06:05:50;2.63;;;1.10;;
46723;SDS011;32463;48.298;11.620;2024-02-21T06:08:36;2.47;;;1.10;;
46723;SDS011;32463;48.298;11.620;2024-02-21T06:11:23;4.53;;;1.52;;
46723;SDS011;32463;48.298;11.620;2024-02-21T06:14:10;3.55;;;1.50;;
46723;SDS011;32463;48.298;11.620;2024-02-21T06:16:57;3.33;;;0.95;;
46723;SDS011;32463;48.298;11.620;2024-02-21T06:19:43;2.20;;;1.00;;
46723;SDS011;32463;48.298;11.620;2024-02-21T06:22:30;2.15;;;1.00;;
46723;SDS011;32463;48.298;11.620;2024-02-21T06:25:17;1.90;;;0.80;;
46723;SDS011;32463;48.298;11.620;2024-02-21T06:28:05;2.20;;;1.20;;
46723;SDS011;32463;48.298;11.620;2024-02-21T06:30:52;2.75;;;1.00;;
46723;SDS011;32463;48.298;11.620;2024-02-21T06:33:40;4.50;;;1.40;;
46723;SDS011;32463;48.298;11.620;2024-02-21T06:36:27;4.47;;;1.23;;
46723;SDS011;32463;48.298;11.620;2024-02-21T06:39:13;2.63;;;1.40;;
46723;SDS011;32463;48.298;11.620;2024-02-21T06:42:00;6.00;;;1.27;;
46723;SDS011;32463;48.298;11.620;2024-02-21T06:44:48;3.40;;;1.58;;
46723;SDS011;32463;48.298;11.620;2024-02-21T06:47:35;5.95;;;1.25;;
46723;SDS011;32463;48.298;11.620;2024-02-21T06:50:21;3.30;;;0.80;;
46723;SDS011;32463;48.298;11.620;2024-02-21T06:53:08;2.22;;;0.90;;
46723;SDS011;32463;48.298;11.620;2024-02-21T06:55:55;5.55;;;1.30;;
46723;SDS011;32463;48.298;11.620;2024-02-21T06:58:43;1.88;;;1.00;;
46723;SDS011;32463;48.298;11.620;2024-02-21T07:01:30;1.45;;;0.88;;
46723;SDS011;32463;48.298;11.620;2024-02-21T07:04:17;1.42;;;0.75;;
46723;SDS011;32463;48.298;11.620;2024-02-21T07:07:03;6.05;;;1.13;;
46723;SDS011;32463;48.298;11.620;2024-02-21T07:09:50;2.70;;;1.27;;
46723;SDS011;32463;48.298;11.620;2024-02-21T07:12:39;5.75;;;1.13;;
46723;SDS011;32463;48.298;11.620;2024-02-21T07:15:28;3.70;;;1.17;;
46723;SDS011;32463;48.298;11.620;2024-02-21T07:18:16;13.73;;;5.20;;
46723;SDS011;32463;48.298;11.620;2024-02-21T07:21:03;8.95;;;4.30;;
46723;SDS011;32463;48.298;11.620;2024-02-21T07:23:50;4.28;;;1.58;;
46723;SDS011;32463;48.298;11.620;2024-02-21T07:26:37;12.55;;;1.35;;
46723;SDS011;32463;48.298;11.620;2024-02-21T07:29:27;2.38;;;0.90;;
46723;SDS011;32463;48.298;11.620;2024-02-21T07:32:14;4.53;;;1.00;;
46723;SDS011;32463;48.298;11.620;2024-02-21T07:35:00;0.98;;;0.70;;
46723;SDS011;32463;48.298;11.620;2024-02-21T07:37:47;3.20;;;0.90;;
46723;SDS011;32463;48.298;11.620;2024-02-21T07:40:34;4.82;;;0.93;;
46723;SDS011;32463;48.298;11.620;2024-02-21T07:43:21;2.65;;;1.30;;
46723;SDS011;32463;48.298;11.620;2024-02-21T07:46:08;3.47;;;1.05;;
46723;SDS011;32463;48.298;11.620;2024-02-21T07:48:54;2.80;;;1.33;;
46723;SDS011;32463;48.298;11.620;2024-02-21T07:51:41;4.32;;;1.23;;
46723;SDS011;32463;48.298;11.620;2024-02-21T07:54:28;6.30;;;1.30;;
46723;SDS011;32463;48.298;11.620;2024-02-21T07:57:15;2.92;;;1.05;;
46723;SDS011;32463;48.298;11.620;2024-02-21T08:00:02;4.55;;;1.50;;
46723;SDS011;32463;48.298;11.620;2024-02-21T08:02:50;2.45;;;1.10;;
46723;SDS011;32463;48.298;11.620;2024-02-21T08:05:37;4.78;;;1.83;;
46723;SDS011;32463;48.298;11.620;2024-02-21T08:08:23;2.25;;;1.00;;
46723;SDS011;32463;48.298;11.620;2024-02-21T08:11:11;2.30;;;1.10;;
46723;SDS011;32463;48.298;11.620;2024-02-21T08:13:58;4.07;;;1.30;;
46723;SDS011;32463;48.298;11.620;2024-02-21T08:16:45;3.25;;;0.95;;
46723;SDS011;32463;48.298;11.620;2024-02-21T08:19:32;2.67;;;0.82;;
46723;SDS011;32463;48.298;11.620;2024-02-21T08:22:19;3.72;;;0.95;;
46723;SDS011;32463;48.298;11.620;2024-02-21T08:25:06;1.30;;;0.80;;
46723;SDS011;32463;48.298;11.620;2024-02-21T08:27:57;2.03;;;0.80;;
46723;SDS011;32463;48.298;11.620;2024-02-21T08:30:45;2.83;;;0.93;;
46723;SDS011;32463;48.298;11.620;2024-02-21T08:33:33;1.02;;;0.70;;
46723;SDS011;32463;48.298;11.620;2024-02-21T08:36:20;2.05;;;0.80;;
46723;SDS011;32463;48.298;11.620;2024-02-21T08:39:07;3.35;;;0.80;;
46723;SDS011;32463;48.298;11.620;2024-02-21T08:41:54;4.18;;;1.30;;
46723;SDS011;32463;48.298;11.620;2024-02-21T08:44:41;2.67;;;0.70;;
46723;SDS011;32463;48.298;11.620;2024-02-21T08:47:29;1.77;;;1.00;;
46723;SDS011;32463;48.298;11.620;2024-02-21T08:50:15;1.02;;;0.70;;
46723;SDS011;32463;48.298;11.620;2024-02-21T08:53:02;0.93;;;0.77;;
46723;SDS011;32463;48.298;11.620;2024-02-21T08:55:49;1.20;;;0.77;;
46723;SDS011;32463;48.298;11.620;2024-02-21T08:58:36;1.40;;;0.82;;
46723;SDS011;32463;48.298;11.620;2024-02-21T09:01:23;2.55;;;0.77;;
46723;SDS011;32463;48.298;11.620;2024-02-21T09:04:10;2.10;;;0.88;;
46723;SDS011;32463;48.298;11.620;2024-02-21T09:06:56;1.92;;;0.60;;
46723;SDS011;32463;48.298;11.620;2024-02-21T09:09:43;2.47;;;0.90;;
46723;SDS011;32463;48.298;11.620;2024-02-21T09:12:30;1.05;;;0.60;;
46723;SDS011;32463;48.298;11.620;2024-02-21T09:15:17;4.50;;;1.67;;
46723;SDS011;32463;48.298;11.620;2024-02-21T09:18:04;3.25;;;0.80;;
46723;SDS011;32463;48.298;11.620;2024-02-21T09:20:50;2.60;;;0.68;;
46723;SDS011;32463;48.298;11.620;2024-02-21T09:23:37;2.05;;;0.60;;
46723;SDS011;32463;48.298;11.620;2024-02-21T09:26:24;2.47;;;0.80;;
46723;SDS011;32463;48.298;11.620;2024-02-21T09:29:11;5.13;;;1.00;;
46723;SDS011;32463;48.298;11.620;2024-02-21T09:31:58;3.25;;;2.30;;
46723;SDS011;32463;48.298;11.620;2024-02-21T09:34:45;2.40;;;0.73;;
46723;SDS011;32463;48.298;11.620;2024-02-21T09:37:32;4.13;;;0.90;;
46723;SDS011;32463;48.298;11.620;2024-02-21T09:40:19;2.35;;;0.68;;
46723;SDS011;32463;48.298;11.620;2024-02-21T09:43:06;2.40;;;0.73;;
46723;SDS011;32463;48.298;11.620;2024-02-21T09:45:54;2.72;;;1.23;;
46723;SDS011;32463;48.298;11.620;2024-02-21T09:51:44;1.88;;;0.68;;
46723;SDS011;32463;48.298;11.620;2024-02-21T09:54:34;1.27;;;0.47;;
46723;SDS011;32463;48.298;11.620;2024-02-21T09:57:20;1.27;;;0.73;;
46723;SDS011;32463;48.298;11.620;2024-02-21T10:00:10;3.17;;;0.73;;
46723;SDS011;32463;48.298;11.620;2024-02-21T10:02:58;1.70;;;0.90;;
46723;SDS011;32463;48.298;11.620;2024-02-21T10:05:48;3.90;;;1.10;;
46723;SDS011;32463;48.298;11.620;2024-02-21T10:08:37;1.20;;;0.55;;
46723;SDS011;32463;48.298;11.620;2024-02-21T10:11:24;1.67;;;0.68;;
46723;SDS011;32463;48.298;11.620;2024-02-21T10:14:11;1.85;;;0.70;;
46723;SDS011;32463;48.298;11.620;2024-02-21T10:16:58;0.95;;;0.60;;
46723;SDS011;32463;48.298;11.620;2024-02-21T10:19:45;1.02;;;0.60;;
46723;SDS011;32463;48.298;11.620;2024-02-21T10:22:32;2.03;;;0.57;;
46723;SDS011;32463;48.298;11.620;2024-02-21T10:25:21;2.25;;;1.00;;
46723;SDS011;32463;48.298;11.620;2024-02-21T10:28:08;0.95;;;0.60;;
46723;SDS011;32463;48.298;11.620;2024-02-21T10:30:54;2.47;;;0.70;;
46723;SDS011;32463;48.298;11.620;2024-02-21T10:33:41;1.02;;;0.60;;
46723;SDS011;32463;48.298;11.620;2024-02-21T10:36:28;1.20;;;0.63;;
46723;SDS011;32463;48.298;11.620;2024-02-21T10:39:15;1.48;;;0.75;;
46723;SDS011;32463;48.298;11.620;2024-02-21T10:42:02;1.63;;;0.70;;
46723;SDS011;32463;48.298;11.620;2024-02-21T10:44:53;1.65;;;0.60;;
46723;SDS011;32463;48.298;11.620;2024-02-21T10:47:41;1.90;;;0.65;;
46723;SDS011;32463;48.298;11.620;2024-02-21T10:50:35;2.78;;;0.77;;
46723;SDS011;32463;48.298;11.620;2024-02-21T10:56:39;1.38;;;0.50;;
46723;SDS011;32463;48.298;11.620;2024-02-21T10:59:26;1.25;;;0.52;;
46723;SDS011;32463;48.298;11.620;2024-02-21T11:02:15;1.02;;;0.57;;
46723;SDS011;32463;48.298;11.620;2024-02-21T11:05:02;1.25;;;0.60;;
46723;SDS011;32463;48.298;11.620;2024-02-21T11:07:50;2.25;;;0.60;;
46723;SDS011;32463;48.298;11.620;2024-02-21T11:10:38;1.98;;;0.55;;
46723;SDS011;32463;48.298;11.620;2024-02-21T11:13:34;1.35;;;0.70;;
46723;SDS011;32463;48.298;11.620;2024-02-21T11:16:22;1.27;;;0.70;;
46723;SDS011;32463;48.298;11.620;2024-02-21T11:19:09;3.50;;;0.95;;
46723;SDS011;32463;48.298;11.620;2024-02-21T11:22:13;1.83;;;0.80;;
46723;SDS011;32463;48.298;11.620;2024-02-21T11:25:07;3.78;;;1.40;;
46723;SDS011;32463;48.298;11.620;2024-02-21T11:28:00;2.90;;;1.17;;
46723;SDS011;32463;48.298;11.620;2024-02-21T11:30:48;3.15;;;1.20;;
46723;SDS011;32463;48.298;11.620;2024-02-21T11:33:39;3.80;;;1.40;;
46723;SDS011;32463;48.298;11.620;2024-02-21T11:36:26;12.43;;;1.67;;
46723;SDS011;32463;48.298;11.620;2024-02-21T11:39:17;2.45;;;1.15;;
46723;SDS011;32463;48.298;11.620;2024-02-21T11:42:08;2.55;;;0.90;;
46723;SDS011;32463;48.298;11.620;2024-02-21T11:44:56;4.68;;;1.17;;
46723;SDS011;32463;48.298;11.620;2024-02-21T11:47:43;0.98;;;0.73;;
46723;SDS011;32463;48.298;11.620;2024-02-21T11:50:30;3.05;;;0.80;;
46723;SDS011;32463;48.298;11.620;2024-02-21T11:53:17;1.50;;;0.73;;
46723;SDS011;32463;48.298;11.620;2024-02-21T11:56:03;1.63;;;0.60;;
46723;SDS011;32463;48.298;11.620;2024-02-21T11:58:50;2.33;;;0.80;;
46723;SDS011;32463;48.298;11.620;2024-02-21T12:01:37;0.70;;;0.60;;
46723;SDS011;32463;48.298;11.620;2024-02-21T12:04:24;1.75;;;0.80;;
46723;SDS011;32463;48.298;11.620;2024-02-21T12:07:11;1.10;;;0.50;;
46723;SDS011;32463;48.298;11.620;2024-02-21T12:09:59;0.75;;;0.30;;
46723;SDS011;32463;48.298;11.620;2024-02-21T12:12:46;0.57;;;0.40;;
46723;SDS011;32463;48.298;11.620;2024-02-21T12:15:33;1.10;;;0.50;;
46723;SDS011;32463;48.298;11.620;2024-02-21T12:18:20;1.15;;;0.70;;
46723;SDS011;32463;48.298;11.620;2024-02-21T12:21:07;0.57;;;0.40;;
46723;SDS011;32463;48.298;11.620;2024-02-21T12:23:54;0.40;;;0.40;;
46723;SDS011;32463;48.298;11.620;2024-02-21T12:26:42;1.10;;;0.50;;
46723;SDS011;32463;48.298;11.620;2024-02-21T12:29:29;1.50;;;0.60;;
46723;SDS011;32463;48.298;11.620;2024-02-21T12:32:16;1.10;;;0.43;;
46723;SDS011;32463;48.298;11.620;2024-02-21T12:35:03;1.35;;;0.50;;
46723;SDS011;32463;48.298;11.620;2024-02-21T12:37:50;0.70;;;0.50;;
46723;SDS011;32463;48.298;11.620;2024-02-21T12:40:37;2.00;;;0.50;;
46723;SDS011;32463;48.298;11.620;2024-02-21T12:43:23;0.85;;;0.40;;
46723;SDS011;32463;48.298;11.620;2024-02-21T12:46:11;1.45;;;0.47;;
46723;SDS011;32463;48.298;11.620;2024-02-21T12:48:57;0.88;;;0.50;;
46723;SDS011;32463;48.298;11.620;2024-02-21T12:51:44;1.63;;;0.65;;
46723;SDS011;32463;48.298;11.620;2024-02-21T12:54:32;0.98;;;0.35;;
46723;SDS011;32463;48.298;11.620;2024-02-21T12:57:19;2.38;;;0.50;;
46723;SDS011;32463;48.298;11.620;2024-02-21T13:00:07;1.30;;;0.35;;
46723;SDS011;32463;48.298;11.620;2024-02-21T13:02:56;1.23;;;0.45;;
46723;SDS011;32463;48.298;11.620;2024-02-21T13:05:43;1.42;;;0.47;;
46723;SDS011;32463;48.298;11.620;2024-02-21T13:08:30;0.10;;;0.10;;
46723;SDS011;32463;48.298;11.620;2024-02-21T13:11:17;0.73;;;0.40;;
46723;SDS011;32463;48.298;11.620;2024-02-21T13:14:04;1.25;;;0.43;;
46723;SDS011;32463;48.298;11.620;2024-02-21T13:16:51;1.40;;;0.50;;
46723;SDS011;32463;48.298;11.620;2024-02-21T13:19:38;1.85;;;0.40;;
46723;SDS011;32463;48.298;11.620;2024-02-21T13:22:24;0.30;;;0.30;;
46723;SDS011;32463;48.298;11.620;2024-02-21T13:25:12;0.77;;;0.45;;
46723;SDS011;32463;48.298;11.620;2024-02-21T13:28:00;0.40;;;0.30;;
46723;SDS011;32463;48.298;11.620;2024-02-21T13:30:48;0.60;;;0.30;;
46723;SDS011;32463;48.298;11.620;2024-02-21T13:33:35;0.32;;;0.32;;
46723;SDS011;32463;48.298;11.620;2024-02-21T13:36:22;0.75;;;0.60;;
46723;SDS011;32463;48.298;11.620;2024-02-21T13:39:09;1.17;;;0.60;;
46723;SDS011;32463;48.298;11.620;2024-02-21T13:41:58;0.93;;;0.47;;
46723;SDS011;32463;48.298;11.620;2024-02-21T13:44:45;1.17;;;0.65;;
46723;SDS011;32463;48.298;11.620;2024-02-21T13:47:32;1.80;;;0.55;;
46723;SDS011;32463;48.298;11.620;2024-02-21T13:50:23;0.57;;;0.45;;
46723;SDS011;32463;48.298;11.620;2024-02-21T13:53:16;1.40;;;0.40;;
46723;SDS011;32463;48.298;11.620;2024-02-21T13:56:03;1.08;;;0.40;;
46723;SDS011;32463;48.298;11.620;2024-02-21T13:58:51;1.55;;;0.40;;
46723;SDS011;32463;48.298;11.620;2024-02-21T14:01:37;4.50;;;0.82;;
46723;SDS011;32463;48.298;11.620;2024-02-21T14:04:24;0.82;;;0.40;;
46723;SDS011;32463;48.298;11.620;2024-02-21T14:07:11;1.02;;;0.50;;
46723;SDS011;32463;48.298;11.620;2024-02-21T14:09:58;0.80;;;0.40;;
46723;SDS011;32463;48.298;11.620;2024-02-21T14:12:45;0.65;;;0.55;;
46723;SDS011;32463;48.298;11.620;2024-02-21T14:15:33;2.10;;;0.60;;
46723;SDS011;32463;48.298;11.620;2024-02-21T14:18:20;0.57;;;0.30;;
46723;SDS011;32463;48.298;11.620;2024-02-21T14:21:06;3.17;;;0.50;;
46723;SDS011;32463;48.298;11.620;2024-02-21T14:23:55;0.68;;;0.20;;
46723;SDS011;32463;48.298;11.620;2024-02-21T14:26:43;2.15;;;1.13;;
46723;SDS011;32463;48.298;11.620;2024-02-21T14:29:30;0.40;;;0.40;;
46723;SDS011;32463;48.298;11.620;2024-02-21T14:32:17;0.40;;;0.35;;
46723;SDS011;32463;48.298;11.620;2024-02-21T14:35:03;1.25;;;0.60;;
46723;SDS011;32463;48.298;11.620;2024-02-21T14:37:51;0.52;;;0.40;;
46723;SDS011;32463;48.298;11.620;2024-02-21T14:40:41;1.27;;;0.50;;
46723;SDS011;32463;48.298;11.620;2024-02-21T14:43:28;0.52;;;0.30;;
46723;SDS011;32463;48.298;11.620;2024-02-21T14:46:15;1.63;;;0.70;;
46723;SDS011;32463;48.298;11.620;2024-02-21T14:49:01;1.55;;;0.70;;
46723;SDS011;32463;48.298;11.620;2024-02-21T14:51:57;2.72;;;0.60;;
46723;SDS011;32463;48.298;11.620;2024-02-21T14:54:44;0.40;;;0.40;;
46723;SDS011;32463;48.298;11.620;2024-02-21T14:57:34;1.45;;;0.75;;
46723;SDS011;32463;48.298;11.620;2024-02-21T15:00:21;2.35;;;0.95;;
46723;SDS011;32463;48.298;11.620;2024-02-21T15:03:18;1.95;;;0.60;;
46723;SDS011;32463;48.298;11.620;2024-02-21T15:06:06;1.05;;;0.57;;
46723;SDS011;32463;48.298;11.620;2024-02-21T15:08:52;1.00;;;0.63;;
46723;SDS011;32463;48.298;11.620;2024-02-21T15:11:39;1.95;;;0.40;;
46723;SDS011;32463;48.298;11.620;2024-02-21T15:14:28;1.00;;;0.70;;
46723;SDS011;32463;48.298;11.620;2024-02-21T15:17:15;0.70;;;0.47;;
46723;SDS011;32463;48.298;11.620;2024-02-21T15:20:01;1.33;;;0.65;;
46723;SDS011;32463;48.298;11.620;2024-02-21T15:22:50;0.47;;;0.47;;
46723;SDS011;32463;48.298;11.620;2024-02-21T15:25:37;1.15;;;0.65;;
46723;SDS011;32463;48.298;11.620;2024-02-21T15:28:24;1.13;;;0.52;;
46723;SDS011;32463;48.298;11.620;2024-02-21T15:31:18;1.08;;;0.60;;
46723;SDS011;32463;48.298;11.620;2024-02-21T15:34:08;0.90;;;0.68;;
46723;SDS011;32463;48.298;11.620;2024-02-21T15:36:54;2.53;;;0.70;;
46723;SDS011;32463;48.298;11.620;2024-02-21T15:39:41;2.53;;;1.20;;
46723;SDS011;32463;48.298;11.620;2024-02-21T15:42:29;1.38;;;0.80;;
46723;SDS011;32463;48.298;11.620;2024-02-21T15:45:18;1.90;;;0.80;;
46723;SDS011;32463;48.298;11.620;2024-02-21T15:48:08;1.90;;;0.98;;
46723;SDS011;32463;48.298;11.620;2024-02-21T15:50:55;2.17;;;0.98;;
46723;SDS011;32463;48.298;11.620;2024-02-21T15:53:42;2.40;;;1.00;;
46723;SDS011;32463;48.298;11.620;2024-02-21T15:56:30;2.08;;;0.93;;
46723;SDS011;32463;48.298;11.620;2024-02-21T15:59:17;1.40;;;0.80;;
46723;SDS011;32463;48.298;11.620;2024-02-21T16:02:04;1.10;;;0.70;;
46723;SDS011;32463;48.298;11.620;2024-02-21T16:04:51;0.95;;;0.60;;
46723;SDS011;32463;48.298;11.620;2024-02-21T16:07:38;1.52;;;0.90;;
46723;SDS011;32463;48.298;11.620;2024-02-21T16:10:25;1.67;;;0.65;;
46723;SDS011;32463;48.298;11.620;2024-02-21T16:13:11;0.57;;;0.50;;
46723;SDS011;32463;48.298;11.620;2024-02-21T16:15:58;1.27;;;0.40;;
46723;SDS011;32463;48.298;11.620;2024-02-21T16:18:45;1.95;;;0.57;;
46723;SDS011;32463;48.298;11.620;2024-02-21T16:21:32;1.65;;;0.90;;
46723;SDS011;32463;48.298;11.620;2024-02-21T16:24:20;2.88;;;1.23;;
46723;SDS011;32463;48.298;11.620;2024-02-21T16:27:07;2.72;;;1.20;;
46723;SDS011;32463;48.298;11.620;2024-02-21T16:29:55;3.25;;;1.20;;
46723;SDS011;32463;48.298;11.620;2024-02-21T16:32:42;3.05;;;1.23;;
46723;SDS011;32463;48.298;11.620;2024-02-21T16:35:29;6.43;;;2.58;;
46723;SDS011;32463;48.298;11.620;2024-02-21T16:38:15;10.38;;;4.28;;